Time;durP1;ratioP1;P1;durP2;ratioP2;P2;SDS_P1;SDS_P2;PMS_P1;PMS_P2;Temp;Humidity;BMP_temperature;BMP_pressure;BME280_temperature;BME280_humidity;BME280_pressure;Samples;Min_cycle;Max_cycle;Signal;HPM_P1;HPM_P2
2022/03/16 00:01:25;;;;;;;;;;;22.90;42.70;;;;;;6304380;27;20054;-51
2022/03/16 00:04:27;;;;;;;;;;;22.60;42.60;;;;;;6303728;27;19937;-51
2022/03/16 00:07:29;;;;;;;;;;;22.70;42.60;;;;;;6305005;27;19970;-55
2022/03/16 00:10:30;;;;;;;;;;;22.90;42.80;;;;;;6306560;27;19927;-55
2022/03/16 00:13:32;;;;;;;;;;;22.80;42.80;;;;;;6311393;27;19927;-55
2022/03/16 00:16:34;;;;;;;;;;;22.60;42.60;;;;;;6276030;27;20030;-56
2022/03/16 00:19:36;;;;;;;;;;;23.00;42.90;;;;;;6318695;27;21094;-54
2022/03/16 00:22:37;;;;;;;;;;;22.90;42.80;;;;;;6298820;27;20883;-52
2022/03/16 00:25:39;;;;;;;;;;;23.00;43.00;;;;;;6317773;27;19934;-51
2022/03/16 00:28:40;;;;;;;;;;;23.00;43.00;;;;;;6315288;27;19931;-52
2022/03/16 00:31:42;;;;;;;;;;;22.90;43.00;;;;;;6313875;27;20811;-51
2022/03/16 00:34:44;;;;;;;;;;;23.00;43.00;;;;;;6316257;27;19923;-50
2022/03/16 00:37:46;;;;;;;;;;;22.60;42.80;;;;;;6312476;27;19966;-53
2022/03/16 00:40:50;;;;;;;;;;;22.60;42.80;;;;;;6314980;27;20832;-53
2022/03/16 00:43:51;;;;;;;;;;;22.50;42.80;;;;;;6314725;27;19931;-53
2022/03/16 00:46:53;;;;;;;;;;;22.80;43.00;;;;;;6315145;27;19923;-54
2022/03/16 00:49:54;;;;;;;;;;;22.90;43.00;;;;;;6318867;27;19932;-53
2022/03/16 00:52:56;;;;;;;;;;;22.60;42.80;;;;;;6318459;27;19938;-53
2022/03/16 00:55:59;;;;;;;;;;;22.60;42.80;;;;;;6315927;27;20053;-56
2022/03/16 00:59:00;;;;;;;;;;;22.70;42.90;;;;;;6309854;27;19931;-55
2022/03/16 01:02:03;;;;;;;;;;;22.50;42.80;;;;;;6315494;27;19927;-56
2022/03/16 01:05:05;;;;;;;;;;;22.60;42.80;;;;;;6317122;27;19931;-55
2022/03/16 01:08:06;;;;;;;;;;;22.80;43.00;;;;;;6319164;27;20749;-52
2022/03/16 01:11:08;;;;;;;;;;;22.70;43.00;;;;;;6319378;27;19927;-55
2022/03/16 01:14:09;;;;;;;;;;;22.80;43.00;;;;;;6318311;27;19938;-49
2022/03/16 01:17:11;;;;;;;;;;;22.50;42.90;;;;;;6318612;27;20599;-56
2022/03/16 01:20:13;;;;;;;;;;;22.80;43.00;;;;;;6317577;27;20053;-54
2022/03/16 01:23:14;;;;;;;;;;;22.50;42.90;;;;;;6321306;27;20811;-63
2022/03/16 01:26:16;;;;;;;;;;;22.60;43.00;;;;;;6322167;27;19974;-52
2022/03/16 01:29:18;;;;;;;;;;;22.90;43.10;;;;;;6299236;27;19931;-54
2022/03/16 01:32:20;;;;;;;;;;;22.70;43.10;;;;;;6320522;27;19931;-51
2022/03/16 01:35:21;;;;;;;;;;;22.50;42.90;;;;;;6319994;27;20033;-52
2022/03/16 01:38:22;;;;;;;;;;;22.90;43.20;;;;;;6319178;27;19923;-54
2022/03/16 01:41:24;;;;;;;;;;;22.40;43.00;;;;;;6319567;27;19931;-52
2022/03/16 01:44:37;;;;;;;;;;;22.80;43.20;;;;;;6323923;27;19958;-54
2022/03/16 01:47:39;;;;;;;;;;;22.80;43.20;;;;;;6319805;27;19931;-60
2022/03/16 01:50:40;;;;;;;;;;;22.60;43.00;;;;;;6317879;27;20015;-51
2022/03/16 01:53:42;;;;;;;;;;;22.50;43.00;;;;;;6318214;27;20849;-55
2022/03/16 01:56:43;;;;;;;;;;;23.00;43.30;;;;;;6300683;27;20965;-55
2022/03/16 01:59:45;;;;;;;;;;;22.70;43.10;;;;;;6314897;27;20756;-52
2022/03/16 02:02:47;;;;;;;;;;;22.50;43.00;;;;;;6318945;27;21218;-52
2022/03/16 02:05:49;;;;;;;;;;;22.60;43.10;;;;;;6318090;27;20049;-55
2022/03/16 02:08:50;;;;;;;;;;;22.70;43.20;;;;;;6320027;27;19986;-51
2022/03/16 02:11:51;;;;;;;;;;;22.40;43.10;;;;;;6319932;27;19923;-57
2022/03/16 02:14:53;;;;;;;;;;;22.40;43.00;;;;;;6319591;27;20757;-56
2022/03/16 02:17:55;;;;;;;;;;;22.70;43.20;;;;;;6317928;27;20037;-53
2022/03/16 02:20:59;;;;;;;;;;;22.80;43.20;;;;;;6317505;27;20046;-53
2022/03/16 02:24:01;;;;;;;;;;;22.60;43.10;;;;;;6311125;27;19927;-50
2022/03/16 02:27:03;;;;;;;;;;;22.70;43.20;;;;;;6309145;27;20527;-54
2022/03/16 02:30:05;;;;;;;;;;;22.80;43.30;;;;;;6312157;27;20228;-54
2022/03/16 02:33:06;;;;;;;;;;;22.50;43.10;;;;;;6309861;27;19931;-55
2022/03/16 02:36:09;;;;;;;;;;;22.10;43.00;;;;;;6293078;27;20371;-53
2022/03/16 02:39:11;;;;;;;;;;;22.80;43.30;;;;;;6314047;27;20278;-49
2022/03/16 02:42:12;;;;;;;;;;;22.70;43.30;;;;;;6312198;27;20054;-52
2022/03/16 02:45:14;;;;;;;;;;;22.90;43.40;;;;;;6311167;27;20792;-53
2022/03/16 02:48:15;;;;;;;;;;;22.70;43.30;;;;;;6301794;27;19931;-51
2022/03/16 02:51:17;;;;;;;;;;;22.50;43.20;;;;;;6310983;27;20839;-52
2022/03/16 02:54:19;;;;;;;;;;;22.60;43.30;;;;;;6307698;27;19931;-51
2022/03/16 02:57:20;;;;;;;;;;;22.80;44.00;;;;;;6308437;27;20055;-56
2022/03/16 03:00:26;;;;;;;;;;;22.30;43.10;;;;;;6307092;27;20427;-51
2022/03/16 03:03:27;;;;;;;;;;;22.30;43.20;;;;;;6305756;27;19931;-52
2022/03/16 03:06:30;;;;;;;;;;;22.50;43.90;;;;;;6307453;27;20066;-51
2022/03/16 03:09:31;;;;;;;;;;;22.60;43.30;;;;;;6307571;27;19938;-51
2022/03/16 03:12:34;;;;;;;;;;;22.60;43.30;;;;;;6307874;27;19963;-53
2022/03/16 03:15:35;;;;;;;;;;;22.40;43.20;;;;;;6305736;27;20038;-50
2022/03/16 03:18:37;;;;;;;;;;;22.20;43.20;;;;;;6305192;27;21388;-51
2022/03/16 03:21:39;;;;;;;;;;;22.60;43.40;;;;;;6308203;27;19927;-53
2022/03/16 03:24:44;;;;;;;;;;;22.20;43.20;;;;;;6308444;27;20046;-53
2022/03/16 03:27:45;;;;;;;;;;;22.60;43.30;;;;;;6307407;27;20213;-50
2022/03/16 03:30:47;;;;;;;;;;;22.70;43.40;;;;;;6304356;27;20760;-55
2022/03/16 03:33:48;;;;;;;;;;;22.70;43.50;;;;;;6315368;27;20317;-54
2022/03/16 03:36:49;;;;;;;;;;;22.20;43.20;;;;;;6319273;27;19923;-53
2022/03/16 03:39:52;;;;;;;;;;;22.70;43.50;;;;;;6313721;27;19931;-51
2022/03/16 03:42:53;;;;;;;;;;;22.10;43.20;;;;;;6309682;27;20199;-52
2022/03/16 03:45:54;;;;;;;;;;;22.60;43.50;;;;;;6310717;27;20189;-52
2022/03/16 03:48:56;;;;;;;;;;;22.40;44.00;;;;;;6314005;27;20001;-55
2022/03/16 03:51:57;;;;;;;;;;;22.90;43.60;;;;;;6312180;27;20937;-54
2022/03/16 03:54:59;;;;;;;;;;;22.30;43.30;;;;;;6297385;27;19941;-49
2022/03/16 03:58:01;;;;;;;;;;;22.20;43.20;;;;;;6314968;27;20149;-49
2022/03/16 04:01:03;;;;;;;;;;;22.60;43.50;;;;;;6313017;27;20264;-51
2022/03/16 04:04:07;;;;;;;;;;;22.50;43.40;;;;;;6311024;27;20556;-53
2022/03/16 04:07:08;;;;;;;;;;;22.60;43.50;;;;;;6310579;27;20397;-51
2022/03/16 04:10:10;;;;;;;;;;;22.30;43.30;;;;;;6310176;27;20784;-52
2022/03/16 04:13:12;;;;;;;;;;;22.40;43.40;;;;;;6309572;27;19978;-55
2022/03/16 04:16:13;;;;;;;;;;;22.30;43.40;;;;;;6310270;27;20069;-54
2022/03/16 04:19:14;;;;;;;;;;;22.10;43.30;;;;;;6320366;27;20259;-52
2022/03/16 04:22:16;;;;;;;;;;;22.30;43.40;;;;;;6310130;27;19974;-49
2022/03/16 04:25:18;;;;;;;;;;;22.20;43.30;;;;;;6319465;27;20034;-56
2022/03/16 04:28:19;;;;;;;;;;;22.50;43.40;;;;;;6313585;27;20210;-52
2022/03/16 04:31:21;;;;;;;;;;;22.40;43.40;;;;;;6319754;27;20873;-51
2022/03/16 04:34:22;;;;;;;;;;;22.50;43.40;;;;;;6321682;27;20002;-52
2022/03/16 04:37:24;;;;;;;;;;;22.20;43.40;;;;;;6293118;27;20010;-55
2022/03/16 04:40:26;;;;;;;;;;;22.30;43.40;;;;;;6313907;27;20031;-53
2022/03/16 04:43:27;;;;;;;;;;;22.00;43.20;;;;;;6317802;27;19927;-53
2022/03/16 04:46:28;;;;;;;;;;;22.40;43.50;;;;;;6313393;27;20978;-57
2022/03/16 04:49:30;;;;;;;;;;;22.50;43.40;;;;;;6314018;27;20003;-52
2022/03/16 04:52:32;;;;;;;;;;;22.60;43.60;;;;;;6319847;27;20410;-51
2022/03/16 04:55:36;;;;;;;;;;;22.10;43.30;;;;;;6305018;27;20049;-55
2022/03/16 04:58:38;;;;;;;;;;;22.10;43.20;;;;;;6322101;27;19963;-54
2022/03/16 05:01:39;;;;;;;;;;;22.70;43.70;;;;;;6321028;27;19939;-53
2022/03/16 05:04:43;;;;;;;;;;;22.30;43.40;;;;;;6321814;27;20312;-52
2022/03/16 05:07:44;;;;;;;;;;;22.50;43.60;;;;;;6317683;27;19938;-54
2022/03/16 05:10:46;;;;;;;;;;;22.20;43.40;;;;;;6316939;27;20339;-53
2022/03/16 05:13:47;;;;;;;;;;;22.40;43.50;;;;;;6309833;27;19973;-50
2022/03/16 05:16:49;;;;;;;;;;;22.00;43.30;;;;;;6305104;27;20851;-54
2022/03/16 05:19:51;;;;;;;;;;;22.30;43.50;;;;;;6308609;27;20454;-50
2022/03/16 05:22:53;;;;;;;;;;;22.50;43.60;;;;;;6307116;27;20593;-55
2022/03/16 05:25:55;;;;;;;;;;;22.30;43.50;;;;;;6307541;27;20890;-51
2022/03/16 05:28:57;;;;;;;;;;;21.90;43.20;;;;;;6316755;27;20053;-51
2022/03/16 05:31:58;;;;;;;;;;;22.30;43.60;;;;;;6314487;27;19931;-51
2022/03/16 05:35:00;;;;;;;;;;;22.50;43.70;;;;;;6309611;27;19931;-53
2022/03/16 05:38:05;;;;;;;;;;;22.20;43.40;;;;;;6296195;27;20112;-54
2022/03/16 05:41:07;;;;;;;;;;;22.40;43.60;;;;;;6306621;27;19923;-54
2022/03/16 05:44:09;;;;;;;;;;;22.10;43.40;;;;;;6314376;27;20009;-53
2022/03/16 05:47:11;;;;;;;;;;;22.60;43.70;;;;;;6295883;27;20042;-51
2022/03/16 05:50:13;;;;;;;;;;;22.10;43.40;;;;;;6318181;27;19927;-53
2022/03/16 05:53:15;;;;;;;;;;;21.90;43.40;;;;;;6309820;27;19924;-53
2022/03/16 05:56:17;;;;;;;;;;;22.50;43.60;;;;;;6309591;27;20001;-54
2022/03/16 05:59:18;;;;;;;;;;;22.30;43.60;;;;;;6310804;27;19931;-51
2022/03/16 06:02:20;;;;;;;;;;;22.40;43.50;;;;;;6307540;27;20022;-51
2022/03/16 06:05:22;;;;;;;;;;;22.50;43.50;;;;;;6257999;28;20165;-54
2022/03/16 06:08:23;;;;;;;;;;;22.50;43.70;;;;;;6258608;28;19938;-51
2022/03/16 06:11:25;;;;;;;;;;;22.10;43.40;;;;;;6256312;28;29472;-53
2022/03/16 06:14:26;;;;;;;;;;;21.90;43.40;;;;;;6257726;28;19928;-52
2022/03/16 06:17:28;;;;;;;;;;;22.20;43.50;;;;;;6256590;28;20051;-52
2022/03/16 06:20:30;;;;;;;;;;;22.10;43.60;;;;;;6257511;28;19939;-52
2022/03/16 06:23:31;;;;;;;;;;;22.70;43.80;;;;;;6256999;28;19938;-51
2022/03/16 06:26:33;;;;;;;;;;;22.10;43.40;;;;;;6242753;28;19934;-53
2022/03/16 06:29:35;;;;;;;;;;;22.40;43.60;;;;;;6255842;28;19930;-52
2022/03/16 06:32:36;;;;;;;;;;;22.40;43.60;;;;;;6255198;28;19991;-52
2022/03/16 06:35:37;;;;;;;;;;;22.30;43.60;;;;;;6274495;27;19923;-52
2022/03/16 06:38:39;;;;;;;;;;;22.30;43.60;;;;;;6312720;27;20870;-55
2022/03/16 06:41:42;;;;;;;;;;;22.40;43.70;;;;;;6307184;27;19930;-54
2022/03/16 06:44:43;;;;;;;;;;;22.00;43.40;;;;;;6312887;27;20047;-52
2022/03/16 06:47:45;;;;;;;;;;;22.40;43.60;;;;;;6305721;27;20713;-52
2022/03/16 06:50:46;;;;;;;;;;;22.30;43.50;;;;;;6306960;27;20830;-52
2022/03/16 06:53:48;;;;;;;;;;;22.50;43.60;;;;;;6292572;27;19938;-53
2022/03/16 06:56:50;;;;;;;;;;;22.60;43.60;;;;;;6300720;27;21667;-55
2022/03/16 06:59:51;;;;;;;;;;;22.80;43.60;;;;;;6306002;27;20049;-58
2022/03/16 07:02:54;;;;;;;;;;;22.60;43.50;;;;;;6297359;27;19979;-49
2022/03/16 07:05:55;;;;;;;;;;;22.60;43.50;;;;;;6304899;27;19931;-54
2022/03/16 07:08:57;;;;;;;;;;;22.40;43.40;;;;;;6295293;27;19935;-54
2022/03/16 07:11:59;;;;;;;;;;;22.40;43.20;;;;;;6287941;27;19932;-52
2022/03/16 07:15:00;;;;;;;;;;;22.50;43.20;;;;;;6293477;27;19938;-54
2022/03/16 07:18:02;;;;;;;;;;;22.40;43.20;;;;;;6290734;27;20555;-53
2022/03/16 07:21:03;;;;;;;;;;;22.40;43.20;;;;;;6282081;27;19939;-54
2022/03/16 07:24:05;;;;;;;;;;;22.20;43.20;;;;;;6276739;27;19931;-54
2022/03/16 07:27:07;;;;;;;;;;;22.20;43.10;;;;;;6281926;27;20100;-51
2022/03/16 07:30:10;;;;;;;;;;;22.60;43.40;;;;;;6283486;27;20066;-53
2022/03/16 07:33:13;;;;;;;;;;;22.70;44.00;;;;;;6249265;27;19998;-51
2022/03/16 07:36:14;;;;;;;;;;;22.40;43.20;;;;;;6250466;27;19931;-51
2022/03/16 07:39:15;;;;;;;;;;;22.60;43.30;;;;;;6252706;27;20058;-49
2022/03/16 07:42:17;;;;;;;;;;;22.70;43.50;;;;;;6227149;27;19935;-53
2022/03/16 07:45:19;;;;;;;;;;;22.30;43.10;;;;;;6222902;27;19937;-51
2022/03/16 07:48:21;;;;;;;;;;;22.70;43.30;;;;;;6201245;27;19931;-50
2022/03/16 07:51:22;;;;;;;;;;;22.80;43.30;;;;;;6199123;27;19931;-52
2022/03/16 07:54:23;;;;;;;;;;;22.70;43.20;;;;;;6187538;27;20119;-53
2022/03/16 07:57:26;;;;;;;;;;;22.60;43.10;;;;;;6198634;27;20954;-53
2022/03/16 08:00:28;;;;;;;;;;;22.70;43.00;;;;;;6188066;27;21551;-51
2022/03/16 08:03:31;;;;;;;;;;;22.50;43.00;;;;;;6143556;27;20013;-60
2022/03/16 08:06:32;;;;;;;;;;;23.10;43.20;;;;;;6139598;27;20020;-49
2022/03/16 08:09:34;;;;;;;;;;;22.90;43.10;;;;;;6154902;27;19931;-46
2022/03/16 08:12:36;;;;;;;;;;;22.90;43.00;;;;;;6163917;27;19938;-46
2022/03/16 08:15:37;;;;;;;;;;;22.60;42.90;;;;;;6169132;27;20050;-46
2022/03/16 08:18:39;;;;;;;;;;;23.10;43.20;;;;;;6159035;27;19938;-50
2022/03/16 08:21:40;;;;;;;;;;;23.10;43.10;;;;;;6118778;27;19931;-45
2022/03/16 08:24:42;;;;;;;;;;;22.70;42.90;;;;;;6145887;27;20058;-53
2022/03/16 08:27:56;;;;;;;;;;;22.90;42.90;;;;;;6132238;27;19989;-48
2022/03/16 08:30:58;;;;;;;;;;;22.70;42.60;;;;;;6176895;27;20019;-45
2022/03/16 08:34:01;;;;;;;;;;;23.10;42.80;;;;;;6146212;27;20349;-46
2022/03/16 08:37:02;;;;;;;;;;;23.00;42.80;;;;;;6108459;27;19938;-45
2022/03/16 08:40:04;;;;;;;;;;;22.70;42.70;;;;;;6127422;27;19938;-50
2022/03/16 08:43:06;;;;;;;;;;;22.90;42.80;;;;;;6120326;27;26227;-47
2022/03/16 08:46:12;;;;;;;;;;;23.20;42.90;;;;;;6107617;27;20049;-47
2022/03/16 08:49:14;;;;;;;;;;;21.80;42.20;;;;;;6118846;27;19938;-48
2022/03/16 08:52:15;;;;;;;;;;;23.10;42.90;;;;;;6086005;27;19931;-46
2022/03/16 08:55:17;;;;;;;;;;;23.20;43.00;;;;;;6090105;27;19931;-45
2022/03/16 08:58:19;;;;;;;;;;;23.10;42.90;;;;;;6104476;27;21658;-47
2022/03/16 09:01:20;;;;;;;;;;;23.20;42.80;;;;;;6088305;27;19931;-46
2022/03/16 09:04:22;;;;;;;;;;;23.10;42.70;;;;;;6086700;27;20630;-46
2022/03/16 09:07:24;;;;;;;;;;;23.10;42.70;;;;;;6130312;27;20110;-45
2022/03/16 09:10:26;;;;;;;;;;;23.10;42.60;;;;;;6160264;27;20069;-45
2022/03/16 09:13:28;;;;;;;;;;;23.10;42.70;;;;;;6151297;27;21260;-45
2022/03/16 09:16:32;;;;;;;;;;;23.00;42.70;;;;;;6117969;27;19931;-46
2022/03/16 09:19:34;;;;;;;;;;;23.20;42.90;;;;;;6123174;27;19935;-48
2022/03/16 09:22:35;;;;;;;;;;;23.50;43.00;;;;;;6121449;27;19931;-51
2022/03/16 09:25:40;;;;;;;;;;;23.30;43.00;;;;;;6135816;27;19988;-47
2022/03/16 09:28:44;;;;;;;;;;;23.00;42.70;;;;;;6176397;27;19938;-45
2022/03/16 09:31:46;;;;;;;;;;;22.70;42.50;;;;;;6151356;27;19938;-48
2022/03/16 09:34:49;;;;;;;;;;;23.20;42.80;;;;;;6142332;27;19958;-45
2022/03/16 09:37:53;;;;;;;;;;;23.30;43.50;;;;;;6127508;27;20697;-45
2022/03/16 09:40:56;;;;;;;;;;;23.30;42.90;;;;;;6103530;27;19931;-46
2022/03/16 09:43:58;;;;;;;;;;;23.30;42.90;;;;;;6138709;27;20495;-45
2022/03/16 09:47:00;;;;;;;;;;;23.40;43.00;;;;;;6122295;27;20327;-46
2022/03/16 09:50:02;;;;;;;;;;;22.90;42.70;;;;;;6096084;27;20050;-45
2022/03/16 09:53:05;;;;;;;;;;;23.20;43.00;;;;;;6097144;27;19938;-47
2022/03/16 09:56:09;;;;;;;;;;;23.00;42.70;;;;;;6125729;27;19938;-45
2022/03/16 09:59:10;;;;;;;;;;;23.20;42.90;;;;;;6127730;27;20004;-44
2022/03/16 10:02:15;;;;;;;;;;;23.20;43.00;;;;;;6105534;27;21498;-46
2022/03/16 10:05:19;;;;;;;;;;;23.30;42.80;;;;;;6071838;27;20015;-47
2022/03/16 10:08:28;;;;;;;;;;;23.10;42.80;;;;;;6094453;27;19938;-45
2022/03/16 10:14:46;;;;;;;;;;;23.40;43.00;;;;;;6097358;27;20730;-48
2022/03/16 10:17:48;;;;;;;;;;;23.60;43.00;;;;;;6129923;27;20054;-52
2022/03/16 10:20:52;;;;;;;;;;;23.40;42.40;;;;;;6124996;27;20101;-47
2022/03/16 10:23:59;;;;;;;;;;;23.10;42.80;;;;;;6121757;27;42342;-44
2022/03/16 10:27:00;;;;;;;;;;;23.10;42.60;;;;;;6119579;27;19962;-46
2022/03/16 10:30:05;;;;;;;;;;;23.30;42.80;;;;;;6103352;27;20058;-45
2022/03/16 10:33:14;;;;;;;;;;;23.50;42.90;;;;;;6071366;27;19938;-47
2022/03/16 10:36:16;;;;;;;;;;;23.00;42.60;;;;;;6094805;27;19932;-45
2022/03/16 10:39:18;;;;;;;;;;;23.10;42.60;;;;;;6090824;27;20059;-45
2022/03/16 10:48:59;;;;;;;;;;;23.60;42.80;;;;;;6108720;27;19931;-47
2022/03/16 10:52:03;;;;;;;;;;;23.40;42.80;;;;;;6124149;27;20906;-46
2022/03/16 10:55:06;;;;;;;;;;;23.40;42.70;;;;;;6093082;27;20066;-48
2022/03/16 10:58:08;;;;;;;;;;;23.70;42.80;;;;;;6108798;27;21178;-52
2022/03/16 11:01:10;;;;;;;;;;;23.20;42.60;;;;;;6133978;27;20151;-47
2022/03/16 11:04:12;;;;;;;;;;;23.40;42.60;;;;;;6098945;27;21419;-47
2022/03/16 11:07:14;;;;;;;;;;;23.30;42.70;;;;;;6114988;27;19971;-56
2022/03/16 11:10:15;;;;;;;;;;;23.40;42.70;;;;;;6134094;27;21374;-50
2022/03/16 11:16:30;;;;;;;;;;;23.40;42.80;;;;;;6159256;27;20836;-45
2022/03/16 11:19:32;;;;;;;;;;;23.90;42.90;;;;;;6166397;27;21867;-50
2022/03/16 11:22:34;;;;;;;;;;;23.70;42.80;;;;;;6156658;27;19932;-47
2022/03/16 11:25:43;;;;;;;;;;;23.30;42.70;;;;;;6141552;27;20894;-49
2022/03/16 11:28:50;;;;;;;;;;;23.70;42.90;;;;;;6181565;27;19938;-53
2022/03/16 11:32:06;;;;;;;;;;;23.50;42.80;;;;;;6197050;27;19938;-49
2022/03/16 11:35:09;;;;;;;;;;;23.60;42.80;;;;;;6203314;27;20903;-52
2022/03/16 11:38:13;;;;;;;;;;;23.40;42.60;;;;;;6197674;27;19934;-47
2022/03/16 11:41:24;;;;;;;;;;;23.70;42.90;;;;;;6202698;27;20019;-47
2022/03/16 11:44:28;;;;;;;;;;;23.30;42.60;;;;;;6187850;27;20049;-50
2022/03/16 11:47:34;;;;;;;;;;;23.70;42.90;;;;;;6201012;27;21551;-47
2022/03/16 11:50:36;;;;;;;;;;;23.50;42.70;;;;;;6198038;27;20008;-47
2022/03/16 11:54:02;;;;;;;;;;;23.70;42.90;;;;;;6199956;27;19958;-48
2022/03/16 11:57:04;;;;;;;;;;;23.40;42.70;;;;;;6195437;27;19932;-47
2022/03/16 12:00:11;;;;;;;;;;;23.40;42.80;;;;;;6216842;27;20060;-50
2022/03/16 12:03:20;;;;;;;;;;;23.80;43.10;;;;;;6190754;27;19939;-46
2022/03/16 12:06:27;;;;;;;;;;;23.50;43.00;;;;;;6204048;27;19938;-49
2022/03/16 12:09:30;;;;;;;;;;;23.20;42.70;;;;;;6209945;27;19966;-49
2022/03/16 12:15:52;;;;;;;;;;;23.40;42.90;;;;;;6211395;27;21177;-47
2022/03/16 12:18:54;;;;;;;;;;;23.50;43.60;;;;;;6233532;27;19931;-48
2022/03/16 12:21:56;;;;;;;;;;;23.60;43.10;;;;;;6222453;27;19931;-50
2022/03/16 12:25:26;;;;;;;;;;;23.40;43.00;;;;;;6219847;27;19978;-48
2022/03/16 12:31:46;;;;;;;;;;;23.50;43.10;;;;;;6194201;27;21745;-48
2022/03/16 12:34:50;;;;;;;;;;;23.30;43.10;;;;;;6186476;27;19931;-50
2022/03/16 12:37:52;;;;;;;;;;;23.50;43.20;;;;;;6188088;27;21928;-50
2022/03/16 12:44:11;;;;;;;;;;;23.40;43.20;;;;;;6178285;27;19939;-50
2022/03/16 12:47:15;;;;;;;;;;;23.10;43.00;;;;;;6171430;27;19935;-52
2022/03/16 12:50:17;;;;;;;;;;;23.50;43.10;;;;;;6161725;27;19931;-48
2022/03/16 12:53:32;;;;;;;;;;;23.80;43.20;;;;;;6178361;27;20077;-51
2022/03/16 12:56:37;;;;;;;;;;;23.60;43.00;;;;;;6145619;27;19931;-49
2022/03/16 12:59:39;;;;;;;;;;;23.50;43.00;;;;;;6151078;27;19930;-51
2022/03/16 13:02:42;;;;;;;;;;;23.60;43.00;;;;;;6096067;27;19938;-52
2022/03/16 13:05:45;;;;;;;;;;;23.50;43.00;;;;;;6087593;27;21632;-50
2022/03/16 13:08:49;;;;;;;;;;;23.70;43.00;;;;;;6090257;27;19932;-51
2022/03/16 13:12:00;;;;;;;;;;;23.40;42.80;;;;;;6128660;27;20152;-51
2022/03/16 13:15:02;;;;;;;;;;;23.50;42.80;;;;;;6130698;27;19931;-49
2022/03/16 13:18:04;;;;;;;;;;;23.50;42.90;;;;;;6107473;27;20901;-49
2022/03/16 13:21:20;;;;;;;;;;;23.50;42.80;;;;;;6120082;27;19932;-50
2022/03/16 13:24:23;;;;;;;;;;;23.50;42.80;;;;;;6062746;27;19935;-49
2022/03/16 13:27:25;;;;;;;;;;;23.70;43.00;;;;;;6081560;27;19935;-48
2022/03/16 13:30:26;;;;;;;;;;;23.50;43.00;;;;;;6088518;27;19931;-47
2022/03/16 13:33:28;;;;;;;;;;;23.60;43.00;;;;;;6111083;27;19938;-49
2022/03/16 13:36:33;;;;;;;;;;;23.60;42.90;;;;;;6150558;27;22629;-45
2022/03/16 13:39:35;;;;;;;;;;;23.70;42.90;;;;;;6116496;27;19948;-49
2022/03/16 13:42:37;;;;;;;;;;;23.80;42.90;;;;;;6129624;27;19939;-49
2022/03/16 13:45:40;;;;;;;;;;;23.70;42.90;;;;;;6099447;27;21857;-48
2022/03/16 13:48:42;;;;;;;;;;;23.90;43.00;;;;;;6090281;27;19932;-48
2022/03/16 13:51:58;;;;;;;;;;;23.70;42.90;;;;;;6116832;27;21259;-51
2022/03/16 13:55:11;;;;;;;;;;;23.40;42.70;;;;;;6114111;27;19939;-51
2022/03/16 13:58:13;;;;;;;;;;;23.80;42.90;;;;;;6117435;27;23038;-52
2022/03/16 14:01:18;;;;;;;;;;;23.60;42.70;;;;;;6115217;27;19931;-50
2022/03/16 14:04:21;;;;;;;;;;;23.80;42.80;;;;;;6100223;27;20140;-51
2022/03/16 14:07:26;;;;;;;;;;;23.70;42.70;;;;;;6104867;27;19930;-48
2022/03/16 14:10:28;;;;;;;;;;;23.90;42.80;;;;;;6102127;27;19931;-51
2022/03/16 14:13:37;;;;;;;;;;;23.90;42.80;;;;;;6087564;27;19999;-52
2022/03/16 14:16:43;;;;;;;;;;;23.80;42.80;;;;;;6083108;27;19962;-49
2022/03/16 14:19:45;;;;;;;;;;;23.90;42.80;;;;;;6093721;27;19931;-48
2022/03/16 14:22:49;;;;;;;;;;;23.80;42.70;;;;;;6079353;27;19931;-52
2022/03/16 14:25:55;;;;;;;;;;;23.70;42.70;;;;;;6110438;27;23225;-53
2022/03/16 14:28:57;;;;;;;;;;;24.00;42.80;;;;;;6102598;27;22228;-51
2022/03/16 14:31:58;;;;;;;;;;;24.00;42.80;;;;;;6106524;27;22243;-50
2022/03/16 14:35:00;;;;;;;;;;;23.90;42.70;;;;;;6085499;27;19932;-47
2022/03/16 14:38:04;;;;;;;;;;;23.80;42.70;;;;;;6097345;27;21173;-49
2022/03/16 14:41:07;;;;;;;;;;;24.00;42.70;;;;;;6064174;27;19938;-46
2022/03/16 14:44:11;;;;;;;;;;;24.00;42.70;;;;;;6088944;27;20067;-47
2022/03/16 14:47:13;;;;;;;;;;;23.90;42.70;;;;;;6065381;27;19937;-47
2022/03/16 14:50:14;;;;;;;;;;;24.10;42.80;;;;;;6056125;27;19990;-50
2022/03/16 14:53:16;;;;;;;;;;;23.60;42.50;;;;;;6097592;27;20007;-51
2022/03/16 14:56:18;;;;;;;;;;;23.80;42.60;;;;;;6090540;27;19932;-47
2022/03/16 14:59:20;;;;;;;;;;;24.00;42.60;;;;;;6085715;27;20057;-47
2022/03/16 15:02:21;;;;;;;;;;;23.80;42.50;;;;;;6085235;27;20069;-47
2022/03/16 15:05:23;;;;;;;;;;;24.00;42.60;;;;;;6047283;27;19937;-46
2022/03/16 15:08:24;;;;;;;;;;;23.80;42.50;;;;;;6100569;27;19931;-53
2022/03/16 15:11:26;;;;;;;;;;;24.00;42.60;;;;;;6079123;27;19931;-50
2022/03/16 15:14:29;;;;;;;;;;;24.10;42.60;;;;;;6056041;27;20345;-50
2022/03/16 15:17:31;;;;;;;;;;;24.00;42.60;;;;;;6077134;27;21259;-52
2022/03/16 15:20:32;;;;;;;;;;;24.00;42.60;;;;;;6097309;27;19958;-43
2022/03/16 15:23:34;;;;;;;;;;;24.30;42.70;;;;;;6050068;27;19932;-48
2022/03/16 15:26:36;;;;;;;;;;;23.80;42.50;;;;;;6081273;27;19935;-49
2022/03/16 15:29:38;;;;;;;;;;;24.30;42.80;;;;;;6118781;27;19931;-51
2022/03/16 15:32:40;;;;;;;;;;;24.10;42.60;;;;;;6116876;27;19931;-49
2022/03/16 15:35:41;;;;;;;;;;;24.10;42.60;;;;;;6115119;27;20984;-51
2022/03/16 15:38:43;;;;;;;;;;;24.40;42.90;;;;;;6114922;27;20071;-49
2022/03/16 15:44:58;;;;;;;;;;;23.90;42.70;;;;;;6112979;27;19938;-50
2022/03/16 15:47:59;;;;;;;;;;;24.20;42.80;;;;;;6124272;27;19937;-51
2022/03/16 15:51:02;;;;;;;;;;;24.40;42.90;;;;;;6106532;27;19931;-51
2022/03/16 15:54:03;;;;;;;;;;;24.30;43.00;;;;;;6100239;27;20069;-50
2022/03/16 15:57:05;;;;;;;;;;;23.90;43.40;;;;;;6123477;27;23638;-50
2022/03/16 16:00:08;;;;;;;;;;;24.40;42.90;;;;;;6138961;27;19931;-47
2022/03/16 16:03:09;;;;;;;;;;;24.20;42.80;;;;;;6116689;27;20747;-49
2022/03/16 16:06:11;;;;;;;;;;;24.10;42.70;;;;;;6128377;27;19931;-51
2022/03/16 16:09:13;;;;;;;;;;;24.40;42.80;;;;;;6154224;27;19931;-49
2022/03/16 16:12:15;;;;;;;;;;;24.20;42.80;;;;;;6120414;27;19931;-48
2022/03/16 16:15:16;;;;;;;;;;;24.30;42.80;;;;;;6128028;27;19931;-50
2022/03/16 16:18:18;;;;;;;;;;;24.30;42.80;;;;;;6122832;27;21134;-51
2022/03/16 16:21:20;;;;;;;;;;;24.10;42.70;;;;;;6137769;27;19931;-52
2022/03/16 16:24:24;;;;;;;;;;;24.30;42.80;;;;;;6153267;27;21100;-46
2022/03/16 16:27:26;;;;;;;;;;;24.10;42.70;;;;;;6144772;27;20965;-47
2022/03/16 16:30:33;;;;;;;;;;;24.80;43.00;;;;;;6152992;27;19963;-51
2022/03/16 16:33:34;;;;;;;;;;;24.40;42.80;;;;;;6178015;27;21042;-52
2022/03/16 16:36:38;;;;;;;;;;;24.30;42.80;;;;;;6186641;27;19937;-51
2022/03/16 16:39:40;;;;;;;;;;;24.20;42.70;;;;;;6155593;27;21572;-56
2022/03/16 16:45:58;;;;;;;;;;;24.10;42.60;;;;;;6177359;27;20442;-53
2022/03/16 16:49:00;;;;;;;;;;;24.30;42.80;;;;;;6180847;27;19931;-53
2022/03/16 16:52:02;;;;;;;;;;;24.00;42.70;;;;;;6184809;27;19931;-54
2022/03/16 16:55:03;;;;;;;;;;;24.20;42.80;;;;;;6174040;27;19959;-50
2022/03/16 16:58:06;;;;;;;;;;;23.90;42.70;;;;;;6164327;27;20179;-54
2022/03/16 17:01:10;;;;;;;;;;;24.00;42.80;;;;;;6148237;27;20649;-53
2022/03/16 17:04:12;;;;;;;;;;;24.00;43.00;;;;;;6171587;27;20913;-52
2022/03/16 17:07:15;;;;;;;;;;;24.10;43.10;;;;;;6190714;27;20027;-55
2022/03/16 17:10:16;;;;;;;;;;;24.10;43.20;;;;;;6196351;27;20956;-53
2022/03/16 17:13:24;;;;;;;;;;;24.00;43.20;;;;;;6218015;27;19937;-54
2022/03/16 17:16:28;;;;;;;;;;;23.80;43.10;;;;;;6217680;27;19999;-53
2022/03/16 17:19:30;;;;;;;;;;;24.10;43.40;;;;;;6226628;27;19938;-51
2022/03/16 17:22:31;;;;;;;;;;;23.70;43.20;;;;;;6245942;27;19931;-53
2022/03/16 17:25:35;;;;;;;;;;;24.10;43.40;;;;;;6255787;27;19959;-53
2022/03/16 17:28:37;;;;;;;;;;;24.10;43.40;;;;;;6265378;27;20046;-52
2022/03/16 17:31:39;;;;;;;;;;;24.00;43.40;;;;;;6267625;27;20020;-50
2022/03/16 17:34:40;;;;;;;;;;;24.00;43.50;;;;;;6251631;27;20838;-52
2022/03/16 17:37:42;;;;;;;;;;;24.00;43.50;;;;;;6260867;27;20227;-52
2022/03/16 17:40:43;;;;;;;;;;;24.00;43.60;;;;;;6274548;27;20042;-54
2022/03/16 17:46:58;;;;;;;;;;;23.70;43.40;;;;;;6274647;27;19932;-51
2022/03/16 17:49:59;;;;;;;;;;;24.00;43.70;;;;;;6280436;27;20340;-53
2022/03/16 17:53:01;;;;;;;;;;;24.00;43.80;;;;;;6287891;27;20050;-51
2022/03/16 17:59:20;;;;;;;;;;;23.70;43.70;;;;;;6290546;27;19931;-53
2022/03/16 18:02:21;;;;;;;;;;;23.70;43.80;;;;;;6269143;27;19939;-53
2022/03/16 18:05:22;;;;;;;;;;;23.50;43.70;;;;;;6282831;27;19931;-53
2022/03/16 18:08:26;;;;;;;;;;;23.50;43.80;;;;;;6292925;27;19942;-52
2022/03/16 18:14:46;;;;;;;;;;;23.70;44.00;;;;;;6288793;27;19931;-56
2022/03/16 18:17:47;;;;;;;;;;;23.30;43.80;;;;;;6300450;27;19938;-53
2022/03/16 18:20:49;;;;;;;;;;;23.60;44.00;;;;;;6295450;27;20004;-56